Time;durP1;ratioP1;P1;durP2;ratioP2;P2;SDS_P1;SDS_P2;PMS_P1;PMS_P2;Temp;Humidity;BMP_temperature;BMP_pressure;BME280_temperature;BME280_humidity;BME280_pressure;Samples;Min_cycle;Max_cycle;Signal;HPM_P1;HPM_P2
2021/04/05 00:02:15;;;;;;;37.20;24.80;;;4.40;99.90;;;;;;5089791;28;21036;-74
2021/04/05 00:04:42;;;;;;;44.47;27.47;;;4.30;99.90;;;;;;5102147;28;20666;-71
2021/04/05 00:07:10;;;;;;;40.17;28.63;;;4.30;99.90;;;;;;5087699;28;20931;-74
2021/04/05 00:09:39;;;;;;;33.33;22.40;;;4.30;99.90;;;;;;5094884;28;20577;-72
2021/04/05 00:12:06;;;;;;;36.27;24.77;;;4.40;99.90;;;;;;5092762;28;20477;-71
2021/04/05 00:14:32;;;;;;;40.03;22.00;;;4.50;99.90;;;;;;5090471;28;20473;-73
2021/04/05 00:17:00;;;;;;;47.07;26.40;;;4.50;99.90;;;;;;5091558;28;20470;-76
2021/04/05 00:19:27;;;;;;;33.30;24.10;;;4.60;99.90;;;;;;5094919;28;20851;-74
2021/04/05 00:21:55;;;;;;;34.73;25.30;;;4.60;99.90;;;;;;5094603;28;21029;-77
2021/04/05 00:24:22;;;;;;;37.20;24.30;;;4.70;99.90;;;;;;5087904;28;20837;-76
2021/04/05 00:26:49;;;;;;;40.23;27.50;;;4.80;99.90;;;;;;5092181;28;20488;-76
2021/04/05 00:29:15;;;;;;;34.63;25.90;;;4.80;99.90;;;;;;5094455;28;20478;-77
2021/04/05 00:31:42;;;;;;;37.87;25.43;;;4.80;99.90;;;;;;5090293;28;20998;-75
2021/04/05 00:34:08;;;;;;;33.33;21.47;;;4.80;99.90;;;;;;5090611;28;20465;-72
2021/04/05 00:36:34;;;;;;;30.70;21.60;;;4.80;99.90;;;;;;5082425;28;20508;-72
2021/04/05 00:39:03;;;;;;;43.27;27.67;;;4.80;99.90;;;;;;5093227;28;20656;-74
2021/04/05 00:41:29;;;;;;;28.60;21.10;;;4.80;99.90;;;;;;5081717;28;20467;-72
2021/04/05 00:43:56;;;;;;;41.83;25.40;;;4.90;99.90;;;;;;5084183;28;20450;-76
2021/04/05 00:46:24;;;;;;;35.53;21.97;;;5.00;99.90;;;;;;5092942;28;20460;-74
2021/04/05 00:48:51;;;;;;;36.57;26.17;;;4.90;99.90;;;;;;5080550;28;20655;-72
2021/04/05 00:51:20;;;;;;;41.20;27.20;;;5.00;99.90;;;;;;5092863;28;20457;-75
2021/04/05 00:53:48;;;;;;;37.57;26.77;;;5.10;99.90;;;;;;5086620;28;20451;-76
2021/04/05 00:56:16;;;;;;;42.40;26.90;;;5.10;99.90;;;;;;5087145;28;20694;-74
2021/04/05 00:58:43;;;;;;;46.57;29.40;;;5.10;99.90;;;;;;5096209;28;20462;-72
2021/04/05 01:01:12;;;;;;;43.30;26.53;;;5.10;99.90;;;;;;5090033;28;20465;-72
2021/04/05 01:03:40;;;;;;;41.97;29.37;;;5.20;99.90;;;;;;5095802;28;20458;-75
2021/04/05 01:06:10;;;;;;;36.67;26.07;;;5.20;99.90;;;;;;5095208;28;20790;-73
2021/04/05 01:08:37;;;;;;;38.40;24.57;;;5.20;99.90;;;;;;5090452;28;20484;-73
2021/04/05 01:11:05;;;;;;;43.87;27.70;;;5.10;99.90;;;;;;5097066;28;21050;-72
2021/04/05 01:13:32;;;;;;;42.60;27.97;;;5.20;99.90;;;;;;5098477;28;20850;-72
2021/04/05 01:15:58;;;;;;;31.20;25.90;;;5.20;99.90;;;;;;5092756;28;20824;-74
2021/04/05 01:18:27;;;;;;;40.10;26.43;;;5.30;99.90;;;;;;5095717;28;20485;-75
2021/04/05 01:20:53;;;;;;;39.10;28.43;;;5.40;99.90;;;;;;5103145;28;21223;-74
2021/04/05 01:23:22;;;;;;;51.03;29.73;;;5.40;99.90;;;;;;5092510;28;20453;-75
2021/04/05 01:25:49;;;;;;;48.97;31.60;;;5.40;99.90;;;;;;5096134;28;20526;-74
2021/04/05 01:28:15;;;;;;;42.90;28.73;;;5.50;99.90;;;;;;5094570;28;20487;-71
2021/04/05 01:30:44;;;;;;;52.70;31.27;;;5.40;99.90;;;;;;5098017;28;20477;-75
2021/04/05 01:33:14;;;;;;;44.57;29.37;;;5.40;99.90;;;;;;5095443;28;20493;-72
2021/04/05 01:35:43;;;;;;;41.97;28.37;;;5.40;99.90;;;;;;5095677;28;20461;-71
2021/04/05 01:38:11;;;;;;;47.77;31.00;;;5.50;99.90;;;;;;5092813;28;20512;-74
2021/04/05 01:40:40;;;;;;;51.07;33.97;;;5.50;99.90;;;;;;5093785;28;20506;-73
2021/04/05 01:43:07;;;;;;;45.67;31.20;;;5.50;99.90;;;;;;5090370;28;20462;-74
2021/04/05 01:45:33;;;;;;;42.90;28.80;;;5.50;99.90;;;;;;5097909;28;21156;-75
2021/04/05 01:48:00;;;;;;;47.30;31.37;;;5.40;99.90;;;;;;5097600;28;20828;-73
2021/04/05 01:50:27;;;;;;;47.87;29.27;;;5.50;99.90;;;;;;5081765;28;20462;-72
2021/04/05 01:52:53;;;;;;;41.80;27.90;;;5.40;99.90;;;;;;5096420;28;20458;-74
2021/04/05 01:55:21;;;;;;;44.93;27.93;;;5.40;99.90;;;;;;5086846;28;21042;-76
2021/04/05 01:57:50;;;;;;;37.60;24.73;;;5.50;99.90;;;;;;5095590;28;20899;-75
2021/04/05 02:00:24;;;;;;;37.97;27.27;;;5.40;99.90;;;;;;5080918;28;20977;-74
2021/04/05 02:02:50;;;;;;;42.47;28.40;;;5.50;99.90;;;;;;5096500;28;20536;-73
2021/04/05 02:05:18;;;;;;;41.33;28.23;;;5.40;99.90;;;;;;5095089;28;20479;-75
2021/04/05 02:07:45;;;;;;;45.77;29.53;;;5.50;99.90;;;;;;5092476;28;20511;-73
2021/04/05 02:10:16;;;;;;;47.57;28.43;;;5.50;99.90;;;;;;5088339;28;20495;-73
2021/04/05 02:12:43;;;;;;;35.27;26.53;;;5.60;99.90;;;;;;5097445;28;20454;-71
2021/04/05 02:15:14;;;;;;;44.97;27.07;;;5.60;99.90;;;;;;5082450;28;20462;-72
2021/04/05 02:17:41;;;;;;;45.70;27.23;;;5.60;99.90;;;;;;5100512;28;20476;-76
2021/04/05 02:20:09;;;;;;;38.70;26.90;;;5.60;99.90;;;;;;5101473;28;20465;-73
2021/04/05 02:22:38;;;;;;;37.53;25.63;;;5.70;99.90;;;;;;5091223;28;20464;-73
2021/04/05 02:25:08;;;;;;;31.60;26.23;;;5.70;99.90;;;;;;5086340;28;20463;-74
2021/04/05 02:27:36;;;;;;;44.43;26.47;;;5.70;99.90;;;;;;5101113;28;20859;-76
2021/04/05 02:30:04;;;;;;;25.10;20.87;;;5.70;99.90;;;;;;5091903;28;20497;-74
2021/04/05 02:32:32;;;;;;;37.10;24.53;;;5.70;99.90;;;;;;5093178;28;21042;-73
2021/04/05 02:34:58;;;;;;;30.83;23.70;;;5.60;99.90;;;;;;5094630;28;20488;-73
2021/04/05 02:37:25;;;;;;;39.63;22.47;;;5.60;99.90;;;;;;5095085;28;20464;-74
2021/04/05 02:39:51;;;;;;;46.23;25.97;;;5.50;99.90;;;;;;5095050;28;20485;-74
2021/04/05 02:42:20;;;;;;;26.57;20.60;;;5.70;99.90;;;;;;5091969;28;20541;-75
2021/04/05 02:44:47;;;;;;;31.10;24.53;;;5.70;99.90;;;;;;5089878;28;20832;-74
2021/04/05 02:47:13;;;;;;;29.47;22.67;;;5.60;99.90;;;;;;5090014;28;20833;-72
2021/04/05 02:49:42;;;;;;;35.20;22.97;;;5.60;99.90;;;;;;5097575;28;20500;-72
2021/04/05 02:52:10;;;;;;;39.50;23.10;;;5.60;99.90;;;;;;5095642;28;20524;-73
2021/04/05 02:54:38;;;;;;;39.97;23.87;;;5.70;99.90;;;;;;5095310;28;20460;-76
2021/04/05 02:57:06;;;;;;;29.40;20.53;;;5.70;99.90;;;;;;5088168;28;20461;-73
2021/04/05 02:59:32;;;;;;;34.00;22.00;;;5.60;99.90;;;;;;5098994;28;20483;-74
2021/04/05 03:02:00;;;;;;;31.47;23.67;;;5.60;99.90;;;;;;5086638;28;20462;-74
2021/04/05 03:04:32;;;;;;;36.27;22.73;;;5.60;99.90;;;;;;5099331;28;21106;-76
2021/04/05 03:07:00;;;;;;;31.37;24.10;;;5.60;99.90;;;;;;5090649;28;20453;-74
2021/04/05 03:09:28;;;;;;;38.87;24.23;;;5.60;99.90;;;;;;5096742;28;20500;-75
2021/04/05 03:11:57;;;;;;;37.83;24.37;;;5.50;99.90;;;;;;5088035;28;20883;-72
2021/04/05 03:14:24;;;;;;;36.57;24.57;;;5.40;99.90;;;;;;5092135;28;20468;-73
2021/04/05 03:16:53;;;;;;;33.87;24.80;;;5.40;99.90;;;;;;5094073;28;20865;-74
2021/04/05 03:19:22;;;;;;;38.10;23.60;;;5.40;99.90;;;;;;5093218;28;20461;-73
2021/04/05 03:21:49;;;;;;;35.93;23.40;;;5.40;99.90;;;;;;5088800;28;21066;-75
2021/04/05 03:24:17;;;;;;;28.23;21.83;;;5.40;99.90;;;;;;5089718;28;20462;-74
2021/04/05 03:26:44;;;;;;;25.80;21.93;;;5.40;99.90;;;;;;5097247;28;20835;-72
2021/04/05 03:29:13;;;;;;;44.77;23.60;;;5.40;99.90;;;;;;5102280;28;20485;-73
2021/04/05 03:31:42;;;;;;;27.93;21.30;;;5.40;99.90;;;;;;5097163;28;20489;-75
2021/04/05 03:34:14;;;;;;;35.07;23.00;;;5.30;99.90;;;;;;5089375;28;20458;-74
2021/04/05 03:36:45;;;;;;;30.93;22.53;;;5.30;99.90;;;;;;5088678;28;20466;-75
2021/04/05 03:39:14;;;;;;;24.07;20.43;;;5.40;99.90;;;;;;5096779;28;20470;-75
2021/04/05 03:41:48;;;;;;;32.77;24.23;;;5.50;99.90;;;;;;5094813;28;20458;-75
2021/04/05 03:44:23;;;;;;;33.90;22.10;;;5.50;99.90;;;;;;5094311;28;20467;-76
2021/04/05 03:46:53;;;;;;;29.40;21.60;;;5.50;99.90;;;;;;5087069;28;20466;-74
2021/04/05 03:49:25;;;;;;;28.40;20.70;;;5.50;99.90;;;;;;5093108;28;20488;-75
2021/04/05 03:52:00;;;;;;;28.83;21.10;;;5.50;99.90;;;;;;5088703;28;21018;-73
2021/04/05 03:54:31;;;;;;;29.43;21.77;;;5.60;99.90;;;;;;5099798;28;20484;-76
2021/04/05 03:56:59;;;;;;;28.43;21.70;;;5.70;99.90;;;;;;5085220;28;20458;-75
2021/04/05 03:59:29;;;;;;;25.50;19.00;;;5.70;99.90;;;;;;5093441;28;20802;-74
2021/04/05 04:02:00;;;;;;;30.70;21.80;;;5.70;99.90;;;;;;5092033;28;20466;-72
2021/04/05 04:04:35;;;;;;;32.90;22.87;;;5.70;99.90;;;;;;5081758;28;20965;-76
2021/04/05 04:07:10;;;;;;;30.50;21.30;;;5.70;99.90;;;;;;5085386;28;20828;-75
2021/04/05 04:09:38;;;;;;;30.53;20.27;;;5.60;99.90;;;;;;5095000;28;20575;-73
2021/04/05 04:12:09;;;;;;;24.50;21.90;;;5.60;99.90;;;;;;5088803;28;20967;-75
2021/04/05 04:14:38;;;;;;;30.13;22.10;;;5.70;99.90;;;;;;5094985;28;20454;-74
2021/04/05 04:17:06;;;;;;;29.40;21.93;;;5.70;99.90;;;;;;5087857;28;20466;-73
2021/04/05 04:19:34;;;;;;;31.30;22.50;;;5.70;99.90;;;;;;5090681;28;20453;-72
2021/04/05 04:22:01;;;;;;;37.87;23.60;;;5.70;99.90;;;;;;5086575;28;20856;-76
2021/04/05 04:24:28;;;;;;;40.20;22.03;;;5.70;99.90;;;;;;5090865;28;20520;-73
2021/04/05 04:26:54;;;;;;;34.20;21.20;;;5.70;99.90;;;;;;5090618;28;20488;-73
2021/04/05 04:29:23;;;;;;;34.30;21.00;;;5.70;99.90;;;;;;5096769;28;20944;-74
2021/04/05 04:31:50;;;;;;;24.60;18.43;;;5.70;99.90;;;;;;5082323;28;20489;-76
2021/04/05 04:34:17;;;;;;;24.97;19.00;;;5.70;99.90;;;;;;5094196;28;20502;-75
2021/04/05 04:36:43;;;;;;;27.27;20.20;;;5.70;99.90;;;;;;5098873;28;20465;-75
2021/04/05 04:39:11;;;;;;;31.33;23.17;;;5.70;99.90;;;;;;5091897;28;20473;-74
2021/04/05 04:41:38;;;;;;;26.93;20.60;;;5.80;99.90;;;;;;5085486;28;20870;-76
2021/04/05 04:44:06;;;;;;;28.53;20.10;;;5.70;99.90;;;;;;5091680;28;20827;-73
2021/04/05 04:46:34;;;;;;;33.53;24.27;;;5.70;99.90;;;;;;5077376;28;20505;-76
2021/04/05 04:49:03;;;;;;;28.53;23.63;;;5.70;99.90;;;;;;5087821;28;20477;-75
2021/04/05 04:51:30;;;;;;;32.20;20.53;;;5.80;99.90;;;;;;5091825;28;20828;-75
2021/04/05 04:53:58;;;;;;;30.57;23.80;;;5.80;99.90;;;;;;5082866;28;20457;-74
2021/04/05 04:56:26;;;;;;;34.53;24.17;;;5.80;99.90;;;;;;5090096;28;20460;-74
2021/04/05 04:58:58;;;;;;;36.33;23.87;;;5.80;99.90;;;;;;5084040;28;20468;-73
2021/04/05 05:01:27;;;;;;;34.23;23.90;;;5.70;99.90;;;;;;5095664;28;20860;-72
2021/04/05 05:03:57;;;;;;;33.47;22.10;;;5.80;99.90;;;;;;5094184;28;20453;-75
2021/04/05 05:06:25;;;;;;;33.27;23.53;;;5.80;99.90;;;;;;5082708;28;20458;-74
2021/04/05 05:08:51;;;;;;;33.13;21.87;;;5.70;99.90;;;;;;5086132;28;20527;-75
2021/04/05 05:11:19;;;;;;;37.60;24.90;;;5.70;99.90;;;;;;5086906;28;20491;-76
2021/04/05 05:13:45;;;;;;;33.83;24.10;;;5.80;99.90;;;;;;5087224;28;21003;-74
2021/04/05 05:16:12;;;;;;;42.40;26.43;;;5.80;99.90;;;;;;5082888;28;20458;-72
2021/04/05 05:18:39;;;;;;;44.87;28.00;;;5.70;99.90;;;;;;5082869;28;20458;-77
2021/04/05 05:21:11;;;;;;;53.43;25.10;;;5.80;99.90;;;;;;5096035;28;20480;-74
2021/04/05 05:23:41;;;;;;;38.27;24.90;;;5.80;99.90;;;;;;5080572;28;20498;-76
2021/04/05 05:26:10;;;;;;;31.43;22.30;;;5.80;99.90;;;;;;5088649;28;20465;-75
2021/04/05 05:28:38;;;;;;;39.63;25.30;;;5.80;99.90;;;;;;5084394;28;21047;-75
2021/04/05 05:31:04;;;;;;;50.13;27.57;;;5.80;99.90;;;;;;5092540;28;20465;-74
2021/04/05 05:33:31;;;;;;;36.27;25.17;;;5.90;99.90;;;;;;5093749;28;20493;-75
2021/04/05 05:35:59;;;;;;;47.37;28.23;;;5.90;99.90;;;;;;5094152;28;20461;-73
2021/04/05 05:38:27;;;;;;;43.73;28.17;;;5.80;99.90;;;;;;5090664;28;20454;-74
2021/04/05 05:40:55;;;;;;;38.33;23.53;;;5.80;99.90;;;;;;5084620;28;20456;-77
2021/04/05 05:43:32;;;;;;;50.50;26.60;;;5.90;99.90;;;;;;5087809;28;20457;-76
2021/04/05 05:46:12;;;;;;;42.37;26.13;;;5.90;99.90;;;;;;5088762;28;20466;-73
2021/04/05 05:48:52;;;;;;;27.60;21.97;;;5.80;99.90;;;;;;5083844;28;21057;-75
2021/04/05 05:51:31;;;;;;;40.07;22.97;;;5.70;99.90;;;;;;5096331;28;20717;-73
2021/04/05 05:54:04;;;;;;;47.27;26.40;;;5.80;99.90;;;;;;5086248;28;20449;-73
2021/04/05 05:56:39;;;;;;;38.57;25.03;;;5.70;99.90;;;;;;5084298;28;20556;-75
2021/04/05 05:59:15;;;;;;;55.70;26.07;;;5.70;99.90;;;;;;5094638;28;20460;-75
2021/04/05 06:01:51;;;;;;;48.10;28.37;;;5.70;99.90;;;;;;5091731;28;20544;-74
2021/04/05 06:04:36;;;;;;;42.03;26.60;;;5.80;99.90;;;;;;5085990;28;20995;-73
2021/04/05 06:07:11;;;;;;;33.97;23.30;;;5.80;99.90;;;;;;5088193;28;20465;-75
2021/04/05 06:09:57;;;;;;;43.53;23.67;;;5.80;99.90;;;;;;5089508;28;20527;-76
2021/04/05 06:12:29;;;;;;;41.53;26.70;;;5.80;99.90;;;;;;5090020;28;20493;-75
2021/04/05 06:15:11;;;;;;;33.47;21.77;;;5.80;99.90;;;;;;5084733;28;20949;-72
2021/04/05 06:17:59;;;;;;;44.30;27.50;;;5.80;99.90;;;;;;5091887;28;20859;-74
2021/04/05 06:20:31;;;;;;;42.10;27.70;;;5.90;99.90;;;;;;5094961;28;20460;-75
2021/04/05 06:23:16;;;;;;;48.27;30.30;;;5.90;99.90;;;;;;5091991;28;21058;-76
2021/04/05 06:25:54;;;;;;;55.87;30.20;;;5.80;99.90;;;;;;5083255;28;20460;-75
2021/04/05 06:28:27;;;;;;;47.90;29.30;;;5.70;99.90;;;;;;5082992;28;20833;-73
2021/04/05 06:31:08;;;;;;;33.83;23.73;;;5.70;99.90;;;;;;5090902;28;20832;-76
2021/04/05 06:33:37;;;;;;;47.13;28.57;;;5.70;99.90;;;;;;5082969;28;20485;-74
2021/04/05 06:36:12;;;;;;;56.10;30.90;;;5.70;99.90;;;;;;5086888;28;20805;-75
2021/04/05 06:38:42;;;;;;;47.70;29.83;;;5.80;99.90;;;;;;5090832;28;20455;-76
2021/04/05 06:41:50;;;;;;;54.13;27.00;;;5.90;99.90;;;;;;5092880;28;20450;-73
2021/04/05 06:44:39;;;;;;;49.40;27.10;;;6.00;99.90;;;;;;5088789;28;20468;-74
2021/04/05 06:47:29;;;;;;;46.17;28.07;;;6.00;99.90;;;;;;5086815;28;20808;-74
2021/04/05 06:50:14;;;;;;;51.33;31.47;;;6.10;99.90;;;;;;5082177;28;20493;-74
2021/04/05 06:53:01;;;;;;;60.63;33.43;;;6.10;99.90;;;;;;5087046;28;20453;-76
2021/04/05 06:55:40;;;;;;;52.60;28.17;;;6.20;99.90;;;;;;5085838;28;20481;-75
2021/04/05 06:58:17;;;;;;;47.03;28.03;;;6.30;99.90;;;;;;5088965;28;20503;-72
2021/04/05 07:00:59;;;;;;;49.90;28.53;;;6.20;99.90;;;;;;5078664;28;20451;-76
2021/04/05 07:03:41;;;;;;;46.27;27.53;;;6.20;99.90;;;;;;5094436;28;20459;-76
2021/04/05 07:06:34;;;;;;;49.93;27.70;;;6.30;99.90;;;;;;5087305;28;20465;-75
2021/04/05 07:09:04;;;;;;;44.70;27.70;;;6.40;99.90;;;;;;5088703;28;20504;-75
2021/04/05 07:11:40;;;;;;;45.00;27.50;;;6.40;99.90;;;;;;5087107;28;20980;-76
2021/04/05 07:14:26;;;;;;;40.20;26.37;;;6.40;99.90;;;;;;5093992;28;20542;-76
2021/04/05 07:17:04;;;;;;;34.03;23.50;;;6.50;99.90;;;;;;5078721;28;20457;-73
2021/04/05 07:20:00;;;;;;;40.77;26.77;;;6.60;99.90;;;;;;5089562;28;20461;-76
2021/04/05 07:22:43;;;;;;;45.80;28.50;;;6.60;99.90;;;;;;5076028;28;20462;-77
2021/04/05 07:25:15;;;;;;;49.27;28.67;;;6.60;99.90;;;;;;5089470;28;20461;-74
2021/04/05 07:27:51;;;;;;;48.43;28.70;;;6.70;99.90;;;;;;5083429;28;20758;-74
2021/04/05 07:30:22;;;;;;;48.37;30.63;;;6.70;99.90;;;;;;5096306;28;20490;-77
2021/04/05 07:33:07;;;;;;;46.47;31.50;;;6.80;99.90;;;;;;5092848;28;20490;-77
2021/04/05 07:35:40;;;;;;;40.10;27.63;;;6.80;99.90;;;;;;5088693;28;20936;-75
2021/04/05 07:38:12;;;;;;;54.37;30.10;;;6.80;99.90;;;;;;5092408;28;20456;-75
2021/04/05 07:40:53;;;;;;;54.20;31.00;;;6.90;99.90;;;;;;5083401;28;20494;-77
2021/04/05 07:43:30;;;;;;;33.37;21.87;;;6.90;99.90;;;;;;5090590;28;20531;-76
2021/04/05 07:46:19;;;;;;;60.27;25.87;;;6.90;99.90;;;;;;5082701;28;20534;-75
2021/04/05 07:48:55;;;;;;;51.37;27.30;;;6.90;99.90;;;;;;5090019;28;20464;-77
2021/04/05 07:51:25;;;;;;;40.17;29.00;;;6.90;99.90;;;;;;5096694;28;20938;-74
2021/04/05 07:53:56;;;;;;;50.90;33.90;;;7.00;99.90;;;;;;5082609;28;20956;-73
2021/04/05 07:56:28;;;;;;;52.07;35.83;;;6.90;99.90;;;;;;5087086;28;20474;-72
2021/04/05 07:59:09;;;;;;;51.33;41.57;;;6.80;99.90;;;;;;5086365;28;20475;-74
2021/04/05 08:01:49;;;;;;;20.13;19.03;;;6.60;99.90;;;;;;5092727;28;20458;-72
2021/04/05 08:04:21;;;;;;;20.60;19.50;;;5.60;99.90;;;;;;5085794;28;20465;-73
2021/04/05 08:06:58;;;;;;;20.77;19.67;;;5.00;99.90;;;;;;5091921;28;20829;-73
2021/04/05 08:09:30;;;;;;;19.47;18.47;;;4.60;99.90;;;;;;5082913;28;21024;-71
2021/04/05 08:12:20;;;;;;;18.03;17.13;;;4.50;99.90;;;;;;5095089;28;20456;-71
2021/04/05 08:15:02;;;;;;;18.17;17.27;;;4.50;99.90;;;;;;5085888;28;20457;-71
2021/04/05 08:17:44;;;;;;;17.67;16.87;;;4.50;99.90;;;;;;5085843;28;20841;-71
2021/04/05 08:20:18;;;;;;;17.57;16.77;;;4.50;99.90;;;;;;5090324;28;20522;-73
2021/04/05 08:22:51;;;;;;;17.70;16.90;;;4.50;99.90;;;;;;5092416;28;20807;-71
2021/04/05 08:25:30;;;;;;;17.13;16.33;;;4.50;99.90;;;;;;5084854;28;20514;-73
2021/04/05 08:28:06;;;;;;;16.67;15.90;;;4.50;99.90;;;;;;5092502;28;20571;-72
2021/04/05 08:30:41;;;;;;;16.10;15.40;;;4.50;99.90;;;;;;5087308;28;20485;-73
2021/04/05 08:33:24;;;;;;;17.27;16.47;;;4.60;99.90;;;;;;5082200;28;21063;-72
2021/04/05 08:35:56;;;;;;;16.97;16.17;;;4.50;99.90;;;;;;5079402;28;20465;-72
2021/04/05 08:38:30;;;;;;;16.97;16.17;;;4.50;99.90;;;;;;5102352;28;20526;-72
2021/04/05 08:41:05;;;;;;;17.30;16.50;;;4.50;99.90;;;;;;5094551;28;20464;-73
2021/04/05 08:43:40;;;;;;;17.23;16.43;;;4.40;99.90;;;;;;5091585;28;20810;-73
2021/04/05 08:46:13;;;;;;;17.33;16.53;;;4.40;99.90;;;;;;5092342;28;20458;-74
2021/04/05 08:48:45;;;;;;;18.27;17.47;;;4.40;99.90;;;;;;5089473;28;20806;-73
2021/04/05 08:51:16;;;;;;;18.03;17.23;;;4.50;99.90;;;;;;5088987;28;20472;-74
2021/04/05 08:53:51;;;;;;;18.20;17.40;;;4.50;99.90;;;;;;5078588;28;20789;-73
2021/04/05 08:56:18;;;;;;;17.20;16.40;;;4.50;99.90;;;;;;5093294;28;20464;-72
2021/04/05 08:58:50;;;;;;;17.37;16.57;;;4.60;99.90;;;;;;5087893;28;20484;-73
2021/04/05 09:01:21;;;;;;;18.17;17.27;;;4.60;99.90;;;;;;5090511;28;20470;-72
2021/04/05 09:03:49;;;;;;;19.07;18.17;;;4.50;99.90;;;;;;5091899;28;20511;-71
2021/04/05 09:06:23;;;;;;;19.00;18.10;;;4.40;99.90;;;;;;5076952;28;20507;-72
2021/04/05 09:08:51;;;;;;;19.63;18.73;;;4.30;99.90;;;;;;5094622;28;20467;-72
2021/04/05 09:11:19;;;;;;;19.33;18.43;;;4.30;99.90;;;;;;5095894;28;20518;-72
2021/04/05 09:13:47;;;;;;;18.47;17.57;;;4.30;99.90;;;;;;5083518;28;20450;-71
2021/04/05 09:16:45;;;;;;;18.37;17.47;;;4.30;99.90;;;;;;5088941;28;20470;-72
2021/04/05 09:19:44;;;;;;;18.77;17.87;;;4.00;99.90;;;;;;5096906;28;20456;-71
2021/04/05 09:22:49;;;;;;;17.70;16.90;;;4.00;99.90;;;;;;5094180;28;20461;-71
2021/04/05 09:25:54;;;;;;;18.07;17.27;;;3.90;99.90;;;;;;5096569;28;20453;-72
2021/04/05 09:28:47;;;;;;;19.07;17.83;;;3.80;99.90;;;;;;5088552;28;20480;-72
2021/04/05 09:31:41;;;;;;;18.67;17.37;;;3.90;99.90;;;;;;5096091;28;20955;-72
2021/04/05 09:34:44;;;;;;;18.33;17.20;;;3.60;99.90;;;;;;5083399;28;20560;-72
2021/04/05 09:37:26;;;;;;;21.43;19.90;;;3.40;99.90;;;;;;5096306;28;20513;-72
2021/04/05 09:40:21;;;;;;;18.77;17.87;;;3.20;99.90;;;;;;5085298;28;20462;-71
2021/04/05 09:43:24;;;;;;;19.70;18.60;;;3.10;99.90;;;;;;5086174;28;20456;-72
2021/04/05 09:46:06;;;;;;;20.27;19.17;;;2.90;99.90;;;;;;5087667;28;20453;-72
2021/04/05 09:48:50;;;;;;;19.13;18.03;;;2.90;99.90;;;;;;5087996;28;20463;-72
2021/04/05 09:51:58;;;;;;;21.07;19.67;;;2.80;99.90;;;;;;5082469;28;20465;-71
2021/04/05 09:54:32;;;;;;;20.87;19.27;;;2.80;99.90;;;;;;5088100;28;20505;-71
2021/04/05 09:57:04;;;;;;;20.27;18.37;;;2.80;99.90;;;;;;5086765;28;20921;-72
2021/04/05 09:59:41;;;;;;;18.73;17.23;;;2.80;99.90;;;;;;5091728;28;20528;-71
2021/04/05 10:02:10;;;;;;;19.03;17.60;;;2.80;99.90;;;;;;5086871;28;20449;-72
2021/04/05 10:04:39;;;;;;;19.53;18.00;;;2.90;99.90;;;;;;5078834;28;20467;-71
2021/04/05 10:07:07;;;;;;;19.10;17.53;;;2.90;99.90;;;;;;5084441;28;20458;-72
2021/04/05 10:09:36;;;;;;;19.10;17.50;;;2.90;99.90;;;;;;5081885;28;20860;-71
2021/04/05 10:12:06;;;;;;;18.00;16.73;;;3.00;99.90;;;;;;5082304;28;20956;-71
2021/04/05 10:14:38;;;;;;;18.20;16.87;;;3.00;99.90;;;;;;5082814;28;20453;-71
2021/04/05 10:17:05;;;;;;;18.07;16.80;;;3.00;99.90;;;;;;5085323;28;20470;-71
2021/04/05 10:19:34;;;;;;;19.03;17.53;;;3.10;99.90;;;;;;5084273;28;20458;-71
2021/04/05 10:22:03;;;;;;;18.93;17.43;;;3.20;99.90;;;;;;5087651;28;20881;-71
2021/04/05 10:24:33;;;;;;;18.50;16.77;;;3.20;99.90;;;;;;5082919;28;21015;-71
2021/04/05 10:27:05;;;;;;;18.77;17.27;;;3.20;99.90;;;;;;5086372;28;20599;-71
2021/04/05 10:29:35;;;;;;;20.27;17.80;;;3.20;99.90;;;;;;5082062;28;21055;-71
2021/04/05 10:32:03;;;;;;;18.30;16.90;;;3.20;99.90;;;;;;5082850;28;20489;-71
2021/04/05 10:34:32;;;;;;;18.70;17.23;;;3.40;99.90;;;;;;5078226;28;20457;-72
2021/04/05 10:37:07;;;;;;;19.03;17.63;;;3.60;99.90;;;;;;5084911;28;20533;-72
2021/04/05 10:39:35;;;;;;;18.33;16.93;;;3.70;99.90;;;;;;5080847;28;20484;-71
2021/04/05 10:42:16;;;;;;;18.93;17.33;;;3.80;99.90;;;;;;5084180;28;20492;-72
2021/04/05 10:44:45;;;;;;;19.50;17.83;;;4.00;99.90;;;;;;5077221;28;20458;-71
2021/04/05 10:47:20;;;;;;;17.20;16.00;;;4.00;99.90;;;;;;5091579;28;20488;-72
2021/04/05 10:49:49;;;;;;;18.73;17.50;;;3.90;99.90;;;;;;5087573;28;20485;-72
2021/04/05 10:52:19;;;;;;;21.43;17.80;;;4.00;99.90;;;;;;5088352;28;20466;-71
2021/04/05 10:54:50;;;;;;;18.50;17.20;;;4.00;99.90;;;;;;5088645;28;20548;-71
2021/04/05 10:57:19;;;;;;;17.00;16.00;;;4.00;99.90;;;;;;5085618;28;20450;-71
2021/04/05 10:59:49;;;;;;;17.43;16.53;;;4.20;99.90;;;;;;5086990;28;20462;-72
2021/04/05 11:02:20;;;;;;;19.87;17.60;;;4.20;99.90;;;;;;5085961;28;20481;-72
2021/04/05 11:04:53;;;;;;;18.73;17.50;;;4.20;99.90;;;;;;5079831;28;20961;-72
2021/04/05 11:07:22;;;;;;;17.20;16.30;;;4.40;99.90;;;;;;5081128;28;20470;-73
2021/04/05 11:09:51;;;;;;;2.90;1.70;;;4.30;99.90;;;;;;5079080;28;20490;-78
2021/04/05 11:12:20;;;;;;;1.70;1.50;;;1.60;99.90;;;;;;5084638;28;21488;-78
2021/04/05 11:14:49;;;;;;;1.97;1.23;;;0.70;99.90;;;;;;5078847;28;20473;-79
2021/04/05 11:17:17;;;;;;;1.93;1.43;;;0.40;99.90;;;;;;5082601;28;20465;-77
2021/04/05 11:19:49;;;;;;;1.33;1.10;;;0.70;99.90;;;;;;5089554;28;20978;-77
2021/04/05 11:22:18;;;;;;;2.20;1.30;;;0.90;99.90;;;;;;5079903;28;20900;-75
2021/04/05 11:24:46;;;;;;;6.50;1.40;;;1.30;99.90;;;;;;5082533;28;20477;-77
2021/04/05 11:27:14;;;;;;;1.57;0.97;;;1.60;99.90;;;;;;5079021;28;21470;-77
2021/04/05 11:29:45;;;;;;;2.23;1.23;;;1.90;99.90;;;;;;5080645;28;21129;-77
2021/04/05 11:32:16;;;;;;;1.30;1.10;;;2.30;99.90;;;;;;5081632;28;21024;-75
2021/04/05 11:34:44;;;;;;;2.03;0.87;;;2.60;99.90;;;;;;5080094;28;20470;-75
2021/04/05 11:37:14;;;;;;;8.73;1.60;;;2.90;99.90;;;;;;5084410;28;20462;-77
2021/04/05 11:39:45;;;;;;;2.57;1.97;;;3.20;99.90;;;;;;5080288;28;20465;-76
2021/04/05 11:42:14;;;;;;;3.77;1.50;;;3.40;99.90;;;;;;5070450;28;20465;-74
2021/04/05 11:44:49;;;;;;;1.70;1.53;;;3.70;99.90;;;;;;5074924;28;20579;-75
2021/04/05 11:47:18;;;;;;;1.77;1.47;;;4.00;99.90;;;;;;5077130;28;20867;-75
2021/04/05 11:49:45;;;;;;;2.97;1.50;;;4.10;99.90;;;;;;5077382;28;20526;-75
2021/04/05 11:52:19;;;;;;;3.47;2.03;;;4.20;99.90;;;;;;5080020;28;20467;-74
2021/04/05 11:54:52;;;;;;;7.80;2.30;;;4.40;99.90;;;;;;5075971;28;20543;-74
2021/04/05 11:57:26;;;;;;;5.40;3.83;;;4.90;99.90;;;;;;5081389;28;20512;-74
2021/04/05 11:59:58;;;;;;;4.50;3.57;;;4.80;99.90;;;;;;5078569;28;20559;-74
2021/04/05 12:02:29;;;;;;;4.70;3.77;;;4.80;99.90;;;;;;5083877;28;21072;-73
2021/04/05 12:05:02;;;;;;;5.13;4.17;;;4.70;99.90;;;;;;5080759;28;20535;-74
2021/04/05 12:07:30;;;;;;;7.37;4.83;;;4.40;99.90;;;;;;5077151;28;20527;-72
2021/04/05 12:10:02;;;;;;;5.30;4.90;;;4.30;99.90;;;;;;5079183;28;20485;-74
2021/04/05 12:12:36;;;;;;;6.83;5.33;;;4.30;99.90;;;;;;5080319;28;20859;-74
2021/04/05 12:15:05;;;;;;;5.97;5.47;;;4.40;99.90;;;;;;5081967;28;20465;-73
2021/04/05 12:17:33;;;;;;;5.40;4.90;;;4.50;99.90;;;;;;5082732;28;20514;-72
2021/04/05 12:20:01;;;;;;;9.60;6.30;;;4.80;99.90;;;;;;5090236;28;20504;-73
2021/04/05 12:22:29;;;;;;;9.03;6.20;;;5.00;99.90;;;;;;5073644;28;20511;-74
2021/04/05 12:24:57;;;;;;;8.83;7.73;;;5.00;99.90;;;;;;5090082;28;20549;-74
2021/04/05 12:27:31;;;;;;;11.67;9.57;;;4.60;99.90;;;;;;5081841;28;20485;-73
2021/04/05 12:30:01;;;;;;;10.87;9.70;;;3.80;99.90;;;;;;5080371;28;20501;-72
2021/04/05 12:32:30;;;;;;;12.03;11.13;;;3.50;99.90;;;;;;5087082;28;20525;-73
2021/04/05 12:34:58;;;;;;;11.23;10.17;;;3.30;99.90;;;;;;5075315;28;20457;-72
2021/04/05 12:37:26;;;;;;;15.37;10.20;;;3.40;99.90;;;;;;5076517;28;20941;-72
2021/04/05 12:40:02;;;;;;;10.63;9.80;;;3.50;99.90;;;;;;5088175;28;20462;-73
2021/04/05 12:42:31;;;;;;;12.37;11.50;;;4.00;99.90;;;;;;5079998;28;20450;-73
2021/04/05 12:45:01;;;;;;;13.03;12.23;;;4.50;99.90;;;;;;5081370;28;20552;-72
2021/04/05 12:47:35;;;;;;;15.70;14.50;;;5.40;99.90;;;;;;5092229;28;21016;-74
2021/04/05 12:50:05;;;;;;;17.27;16.27;;;5.80;99.90;;;;;;5087660;28;20901;-73
2021/04/05 12:52:35;;;;;;;17.03;15.73;;;5.90;99.90;;;;;;5083664;28;20461;-74
2021/04/05 12:55:08;;;;;;;16.37;15.03;;;6.50;99.90;;;;;;5097504;28;20499;-75
2021/04/05 12:57:37;;;;;;;15.30;14.40;;;6.70;99.90;;;;;;5085817;28;20493;-73
2021/04/05 13:00:08;;;;;;;15.60;14.80;;;7.20;99.90;;;;;;5096100;28;20856;-75
2021/04/05 13:02:38;;;;;;;15.90;15.00;;;6.50;99.90;;;;;;5095478;28;20458;-71
2021/04/05 13:05:15;;;;;;;17.53;16.23;;;5.50;99.90;;;;;;5084783;28;20495;-72